.
WxDataArchive / Data Records for 2011-02-09
2011-02-08 February 2011 2011-02-10

Data Records for Wednesday, 09 February 2011

Time	Temp	Chill	HIndex	Humid	Dewpt	 Wind 	HiWind	WindDir	Rain 	Barom 
-----	----	-----	------	-----	-----	------	------	-------	-----	----- 
00:00	7.0	7.0	7.0	74	0.5	1	3	248	0.00	30.390 
00:05	7.0	7.0	7.0	74	0.5	1	4	248	0.00	30.390 
00:10	7.0	7.0	7.0	73	0.2	1	2	270	0.00	30.390 
00:15	7.0	7.0	7.0	73	0.2	1	3	270	0.00	30.379 
00:20	7.0	7.0	7.0	73	0.2	1	4	248	0.00	30.379 
00:25	7.0	7.0	7.0	73	0.2	1	5	248	0.00	30.379 
00:30	7.0	7.0	7.0	73	0.2	1	4	248	0.00	30.375 
00:35	7.0	7.0	7.0	72	-0.1	1	4	248	0.00	30.375 
00:40	6.9	6.9	6.9	72	-0.2	2	4	225	0.00	30.375 
00:45	6.9	6.9	6.9	72	-0.2	2	6	248	0.00	30.379 
00:50	6.9	6.9	6.9	71	-0.5	2	6	248	0.00	30.379 
00:55	6.7	6.7	6.7	71	-0.7	2	6	248	0.00	30.379 
01:00	6.7	6.7	6.7	70	-1.0	2	5	248	0.00	30.380 
01:05	6.7	6.7	6.7	69	-1.3	2	5	248	0.00	30.380 
01:10	6.7	6.7	6.7	69	-1.3	2	6	248	0.00	30.380 
01:15	6.5	6.5	6.5	69	-1.5	1	6	248	0.00	30.382 
01:20	6.5	6.5	6.5	69	-1.5	1	2	248	0.00	30.382 
01:25	6.5	6.5	6.5	68	-1.8	1	3	248	0.00	30.382 
01:30	6.5	6.5	6.5	68	-1.8	1	4	248	0.00	30.376 
01:35	6.3	6.3	6.3	68	-2.0	1	4	248	0.00	30.376 
01:40	6.3	6.3	6.3	68	-2.0	2	5	248	0.00	30.376 
01:45	6.1	6.1	6.1	67	-2.5	1	3	248	0.00	30.375 
01:50	6.1	6.1	6.1	67	-2.5	2	4	248	0.00	30.375 
01:55	6.1	6.1	6.1	66	-2.8	1	3	248	0.00	30.375 
02:00	6.0	6.0	6.0	65	-3.2	1	6	225	0.00	30.376 
02:05	6.0	6.0	6.0	65	-3.2	2	5	248	0.00	30.376 
02:10	6.0	6.0	6.0	65	-3.2	1	5	248	0.00	30.376 
02:15	5.8	5.8	5.8	64	-3.7	2	4	248	0.00	30.380 
02:20	5.8	5.8	5.8	64	-3.7	2	4	248	0.00	30.380 
02:25	5.8	5.8	5.8	64	-3.7	2	6	248	0.00	30.380 
02:30	5.8	5.8	5.8	63	-4.0	1	5	248	0.00	30.377 
02:35	5.8	5.8	5.8	63	-4.0	2	4	248	0.00	30.377 
02:40	5.6	5.6	5.6	63	-4.2	1	4	248	0.00	30.377 
02:45	5.6	5.6	5.6	63	-4.2	2	5	248	0.00	30.375 
02:50	5.6	5.6	5.6	63	-4.2	2	3	248	0.00	30.375 
02:55	5.6	5.6	5.6	63	-4.2	1	5	248	0.00	30.375 
03:00	5.4	5.4	5.4	63	-4.4	1	2	270	0.00	30.366 
03:05	5.4	5.4	5.4	62	-4.8	2	4	248	0.00	30.366 
03:10	5.4	5.4	5.4	62	-4.8	2	4	248	0.00	30.366 
03:15	5.2	5.2	5.2	62	-4.9	2	5	248	0.00	30.362 
03:20	5.2	5.2	5.2	62	-4.9	2	5	248	0.00	30.362 
03:25	5.0	5.0	5.0	62	-5.1	1	3	248	0.00	30.362 
03:30	5.0	5.0	5.0	62	-5.1	1	3	248	0.00	30.351 
03:35	4.8	4.8	4.8	62	-5.3	2	5	248	0.00	30.351 
03:40	4.8	4.8	4.8	62	-5.3	2	5	248	0.00	30.351 
03:45	4.8	4.8	4.8	62	-5.3	1	4	248	0.00	30.344 
03:50	4.7	4.7	4.7	62	-5.4	1	3	248	0.00	30.344 
03:55	4.7	4.7	4.7	62	-5.4	1	5	248	0.00	30.344 
04:00	4.7	4.7	4.7	62	-5.4	2	3	248	0.00	30.332 
04:05	4.7	4.7	4.7	62	-5.4	1	4	248	0.00	30.332 
04:10	4.7	4.7	4.7	62	-5.4	1	4	248	0.00	30.332 
04:15	4.7	4.7	4.7	62	-5.4	1	5	270	0.00	30.325 
04:20	4.7	4.7	4.7	62	-5.4	1	4	248	0.00	30.325 
04:25	4.7	4.7	4.7	62	-5.4	1	5	248	0.00	30.325 
04:30	4.5	4.5	4.5	62	-5.6	1	5	248	0.00	30.327 
04:35	4.5	4.5	4.5	62	-5.6	1	3	248	0.00	30.327 
04:40	4.5	4.5	4.5	62	-5.6	1	5	248	0.00	30.327 
04:45	4.5	4.5	4.5	62	-5.6	1	3	248	0.00	30.329 
04:50	4.5	4.5	4.5	62	-5.6	1	3	248	0.00	30.329 
04:55	4.5	4.5	4.5	62	-5.6	1	4	248	0.00	30.329 
05:00	4.3	4.3	4.3	62	-5.8	1	4	248	0.00	30.325 
05:05	4.5	4.5	4.5	61	-5.9	2	5	248	0.00	30.325 
05:10	4.5	4.5	4.5	61	-5.9	1	4	248	0.00	30.325 
05:15	4.5	4.5	4.5	61	-5.9	1	2	248	0.00	30.321 
05:20	4.5	4.5	4.5	61	-5.9	1	2	248	0.00	30.321 
05:25	4.5	4.5	4.5	61	-5.9	1	4	248	0.00	30.321 
05:30	4.5	4.5	4.5	60	-6.3	1	4	248	0.00	30.321 
05:35	4.7	4.7	4.7	60	-6.1	2	6	248	0.00	30.321 
05:40	4.7	4.7	4.7	59	-6.4	2	5	248	0.00	30.321 
05:45	4.7	4.7	4.7	59	-6.4	1	4	248	0.00	30.322 
05:50	4.5	4.5	4.5	59	-6.6	1	5	248	0.00	30.322 
05:55	4.7	4.7	4.7	60	-6.1	1	3	270	0.00	30.322 
06:00	4.7	4.7	4.7	60	-6.1	1	4	248	0.00	30.318 
06:05	4.7	4.7	4.7	60	-6.1	2	4	248	0.00	30.318 
06:10	4.8	4.8	4.8	60	-6.0	1	3	248	0.00	30.318 
06:15	4.8	4.8	4.8	60	-6.0	1	4	248	0.00	30.321 
06:20	5.0	5.0	5.0	60	-5.8	1	3	248	0.00	30.321 
06:25	5.2	5.2	5.2	60	-5.6	2	5	248	0.00	30.321 
06:30	5.2	5.2	5.2	60	-5.6	1	4	248	0.00	30.320 
06:35	5.4	5.4	5.4	60	-5.4	1	4	248	0.00	30.320 
06:40	5.4	5.4	5.4	60	-5.4	1	3	248	0.00	30.320 
06:45	5.4	5.4	5.4	60	-5.4	1	3	248	0.00	30.314 
06:50	5.6	5.6	5.6	60	-5.2	1	3	248	0.00	30.314 
06:55	5.6	5.6	5.6	59	-5.6	1	3	248	0.00	30.314 
07:00	5.6	5.6	5.6	60	-5.2	1	4	248	0.00	30.303 
07:05	5.6	5.6	5.6	60	-5.2	1	3	225	0.00	30.303 
07:10	5.6	5.6	5.6	59	-5.6	1	4	248	0.00	30.303 
07:15	5.6	5.6	5.6	59	-5.6	1	4	248	0.00	30.306 
07:20	5.6	5.6	5.6	59	-5.6	2	6	248	0.00	30.306 
07:25	5.6	5.6	5.6	59	-5.6	1	3	248	0.00	30.306 
07:30	5.6	5.6	5.6	59	-5.6	1	4	248	0.00	30.307 
07:35	5.8	5.8	5.8	58	-5.8	2	4	248	0.00	30.307 
07:40	5.8	5.8	5.8	58	-5.8	2	6	248	0.00	30.307 
07:45	5.6	5.6	5.6	58	-5.9	1	4	248	0.00	30.305 
07:50	5.6	5.6	5.6	58	-5.9	1	5	248	0.00	30.305 
07:55	5.4	5.4	5.4	58	-6.1	2	7	248	0.00	30.305 
08:00	5.4	5.4	5.4	58	-6.1	1	4	248	0.00	30.302 
08:05	5.4	5.4	5.4	58	-6.1	1	2	248	0.00	30.302 
08:10	5.4	5.4	5.4	58	-6.1	2	5	248	0.00	30.302 
08:15	5.6	5.6	5.6	57	-6.3	1	4	248	0.00	30.315 
08:20	5.8	5.8	5.8	57	-6.1	1	5	248	0.00	30.315 
08:25	5.8	5.8	5.8	57	-6.1	1	5	270	0.00	30.315 
08:30	6.0	6.0	6.0	56	-6.3	1	4	248	0.00	30.320 
08:35	6.1	6.1	6.1	56	-6.2	1	3	248	0.00	30.320 
08:40	6.3	6.3	6.3	56	-6.0	1	3	248	0.00	30.320 
08:45	6.5	6.5	6.5	56	-5.8	2	6	248	0.00	30.306 
08:50	6.5	6.5	6.5	56	-5.8	2	5	248	0.00	30.306 
08:55	6.5	6.5	6.5	56	-5.8	2	5	248	0.00	30.306 
09:00	6.7	6.7	6.7	56	-5.6	2	5	248	0.00	30.306 
09:05	6.7	6.7	6.7	56	-5.6	2	4	248	0.00	30.306 
09:10	6.9	6.9	6.9	55	-5.8	2	5	248	0.00	30.306 
09:15	7.2	7.2	7.2	55	-5.5	3	6	248	0.00	30.323 
09:20	7.4	7.4	7.4	55	-5.3	1	5	248	0.00	30.323 
09:25	7.7	7.7	7.7	54	-5.4	2	6	248	0.00	30.323 
09:30	7.9	7.9	7.9	53	-5.6	2	5	248	0.00	30.317 
09:35	8.3	8.3	8.3	53	-5.3	2	7	248	0.00	30.317 
09:40	8.6	8.6	8.6	52	-5.4	2	6	248	0.00	30.317 
09:45	9.0	9.0	9.0	51	-5.4	3	6	248	0.00	30.310 
09:50	9.2	9.2	9.2	51	-5.2	2	7	248	0.00	30.310 
09:55	9.0	9.0	9.0	50	-5.8	2	4	270	0.00	30.310 
10:00	9.2	9.2	9.2	51	-5.2	2	6	248	0.00	30.305 
10:05	9.3	9.3	9.3	51	-5.1	2	5	225	0.00	30.305 
10:10	9.7	9.7	9.7	50	-5.2	2	6	248	0.00	30.305 
10:15	10.2	10.2	10.2	50	-4.7	2	4	248	0.00	30.305 
10:20	10.4	10.4	10.4	50	-4.5	3	7	248	0.00	30.305 
10:25	10.4	10.4	10.4	49	-4.9	2	6	248	0.00	30.305 
10:30	10.5	10.5	10.5	49	-4.8	3	6	248	0.00	30.300 
10:35	10.7	10.7	10.7	49	-4.7	2	4	248	0.00	30.300 
10:40	10.7	10.7	10.7	50	-4.2	2	4	270	0.00	30.300 
10:45	10.7	10.7	10.7	49	-4.7	3	11	248	0.00	30.305 
10:50	10.7	10.7	10.7	49	-4.7	2	5	248	0.00	30.305 
10:55	11.2	11.2	11.2	50	-3.8	3	9	248	0.00	30.305 
11:00	11.2	11.2	11.2	49	-4.2	3	5	270	0.00	30.316 
11:05	11.4	11.4	11.4	49	-4.0	3	7	248	0.00	30.316 
11:10	11.7	11.7	11.7	50	-3.3	1	4	248	0.00	30.316 
11:15	11.9	11.9	11.9	49	-3.5	3	5	248	0.00	30.309 
11:20	12.3	12.3	12.3	49	-3.2	2	6	248	0.00	30.309 
11:25	12.4	12.4	12.4	49	-3.1	2	6	248	0.00	30.309 
11:30	12.4	12.4	12.4	48	-3.5	2	4	270	0.00	30.303 
11:35	12.6	12.6	12.6	49	-2.9	1	5	270	0.00	30.303 
11:40	12.9	12.9	12.9	49	-2.6	1	4	248	0.00	30.303 
11:45	12.8	12.8	12.8	49	-2.7	2	4	270	0.00	30.294 
11:50	12.8	12.8	12.8	48	-3.1	2	5	248	0.00	30.294 
11:55	12.8	12.8	12.8	49	-2.7	2	4	270	0.00	30.294 
12:00	12.8	12.8	12.8	50	-2.3	2	5	292	0.00	30.288 
12:05	12.6	5.7	12.6	48	-3.3	4	9	270	0.00	30.288 
12:10	12.8	12.8	12.8	49	-2.7	3	7	248	0.00	30.288 
12:15	12.6	5.7	12.6	49	-2.9	4	9	248	0.00	30.287 
12:20	12.4	12.4	12.4	49	-3.1	3	7	270	0.00	30.287 
12:25	12.6	12.6	12.6	49	-2.9	3	5	270	0.00	30.287 
12:30	12.6	12.6	12.6	50	-2.5	2	5	270	0.00	30.273 
12:35	13.3	13.3	13.3	49	-2.2	2	6	248	0.00	30.273 
12:40	13.6	13.6	13.6	49	-2.0	2	6	248	0.00	30.273 
12:45	14.0	14.0	14.0	48	-2.0	2	6	248	0.00	30.270 
12:50	14.0	14.0	14.0	47	-2.5	3	9	248	0.00	30.270 
12:55	14.0	14.0	14.0	47	-2.5	3	7	248	0.00	30.270 
13:00	14.0	14.0	14.0	46	-2.9	3	7	248	0.00	30.266 
13:05	14.1	14.1	14.1	47	-2.4	2	5	248	0.00	30.266 
13:10	14.1	7.4	14.1	46	-2.8	4	9	270	0.00	30.266 
13:15	14.0	14.0	14.0	46	-2.9	3	4	270	0.00	30.256 
13:20	14.1	14.1	14.1	46	-2.8	2	5	270	0.00	30.256 
13:25	14.4	14.4	14.4	48	-1.7	2	5	248	0.00	30.256 
13:30	14.8	14.8	14.8	46	-2.2	3	5	248	0.00	30.244 
13:35	14.8	8.2	14.8	44	-3.1	4	9	248	0.00	30.244 
13:40	14.6	14.6	14.6	45	-2.8	3	9	248	0.00	30.244 
13:45	14.8	14.8	14.8	45	-2.6	3	6	248	0.00	30.240 
13:50	14.9	14.9	14.9	44	-3.0	2	4	248	0.00	30.240 
13:55	15.1	15.1	15.1	44	-2.8	3	6	270	0.00	30.240 
14:00	14.8	14.8	14.8	45	-2.6	2	4	270	0.00	30.240 
14:05	14.9	14.9	14.9	46	-2.1	2	4	270	0.00	30.240 
14:10	15.1	15.1	15.1	46	-1.9	3	5	248	0.00	30.240 
14:15	15.2	15.2	15.2	46	-1.8	2	6	270	0.00	30.234 
14:20	15.4	15.4	15.4	46	-1.6	2	4	248	0.00	30.234 
14:25	15.2	15.2	15.2	45	-2.3	3	10	248	0.00	30.234 
14:30	15.1	15.1	15.1	45	-2.4	3	10	270	0.00	30.228 
14:35	14.8	14.8	14.8	46	-2.2	3	6	270	0.00	30.228 
14:40	14.6	8.0	14.6	46	-2.4	4	10	270	0.00	30.228 
14:45	14.3	14.3	14.3	47	-2.2	3	7	270	0.00	30.226 
14:50	14.3	7.6	14.3	48	-1.8	4	9	248	0.00	30.226 
14:55	14.1	14.1	14.1	48	-1.9	3	9	248	0.00	30.226 
15:00	14.0	14.0	14.0	48	-2.0	3	6	270	0.00	30.213 
15:05	14.1	7.4	14.1	48	-1.9	4	10	270	0.00	30.213 
15:10	14.1	14.1	14.1	49	-1.5	3	5	248	0.00	30.213 
15:15	14.4	14.4	14.4	49	-1.2	3	7	248	0.00	30.209 
15:20	14.4	14.4	14.4	50	-0.8	3	9	248	0.00	30.209 
15:25	14.4	14.4	14.4	50	-0.8	3	6	248	0.00	30.209 
15:30	14.6	14.6	14.6	50	-0.6	2	5	248	0.00	30.205 
15:35	14.6	14.6	14.6	49	-1.0	3	5	270	0.00	30.205 
15:40	14.3	14.3	14.3	48	-1.8	3	6	270	0.00	30.205 
15:45	14.0	14.0	14.0	48	-2.0	3	5	270	0.00	30.208 
15:50	13.8	13.8	13.8	49	-1.8	2	5	270	0.00	30.208 
15:55	14.0	14.0	14.0	50	-1.2	3	6	248	0.00	30.208 
16:00	14.1	14.1	14.1	50	-1.1	1	4	270	0.00	30.207 
16:05	13.8	13.8	13.8	48	-2.2	3	5	270	0.00	30.207 
16:10	13.6	13.6	13.6	49	-2.0	3	6	248	0.00	30.207 
16:15	13.5	13.5	13.5	49	-2.1	3	6	270	0.00	30.205 
16:20	13.3	13.3	13.3	50	-1.8	3	10	270	0.00	30.205 
16:25	13.1	13.1	13.1	50	-2.0	3	6	270	0.00	30.205 
16:30	12.9	12.9	12.9	50	-2.2	3	5	270	0.00	30.207 
16:35	12.8	12.8	12.8	50	-2.3	3	7	270	0.00	30.207 
16:40	12.8	12.8	12.8	51	-1.9	2	6	248	0.00	30.207 
16:45	12.6	12.6	12.6	52	-1.6	2	6	248	0.00	30.202 
16:50	12.6	12.6	12.6	52	-1.6	2	7	248	0.00	30.202 
16:55	12.6	12.6	12.6	52	-1.6	2	10	248	0.00	30.202 
17:00	12.4	12.4	12.4	53	-1.4	3	12	248	0.00	30.203 
17:05	12.3	12.3	12.3	53	-1.5	2	4	270	0.00	30.203 
17:10	12.1	12.1	12.1	54	-1.3	2	5	248	0.00	30.203 
17:15	12.1	12.1	12.1	54	-1.3	3	6	248	0.00	30.205 
17:20	11.9	11.9	11.9	54	-1.5	1	4	248	0.00	30.205 
17:25	11.7	11.7	11.7	54	-1.7	2	4	248	0.00	30.205 
17:30	11.6	11.6	11.6	55	-1.4	2	3	248	0.00	30.204 
17:35	11.6	11.6	11.6	55	-1.4	2	3	248	0.00	30.204 
17:40	11.4	11.4	11.4	56	-1.2	1	3	248	0.00	30.204 
17:45	11.2	11.2	11.2	56	-1.4	1	3	248	0.00	30.199 
17:50	11.1	11.1	11.1	56	-1.5	2	7	248	0.00	30.199 
17:55	10.9	10.9	10.9	55	-2.1	3	6	270	0.00	30.199 
18:00	10.7	10.7	10.7	56	-1.9	2	3	225	0.00	30.197 
18:05	10.5	10.5	10.5	56	-2.1	2	4	225	0.00	30.197 
18:10	10.4	10.4	10.4	56	-2.2	2	4	270	0.00	30.197 
18:15	10.2	10.2	10.2	56	-2.3	1	4	248	0.00	30.205 
18:20	10.0	10.0	10.0	57	-2.2	1	4	270	0.00	30.205 
18:25	10.0	10.0	10.0	57	-2.2	2	5	270	0.00	30.205 
18:30	9.9	9.9	9.9	58	-1.9	2	4	248	0.00	30.212 
18:35	9.7	9.7	9.7	58	-2.1	1	3	270	0.00	30.212 
18:40	9.5	9.5	9.5	58	-2.3	1	3	248	0.00	30.212 
18:45	9.5	9.5	9.5	59	-1.9	1	4	270	0.00	30.217 
18:50	9.3	9.3	9.3	59	-2.1	1	3	270	0.00	30.217 
18:55	9.2	9.2	9.2	60	-1.8	1	3	248	0.00	30.217 
19:00	9.0	9.0	9.0	60	-2.0	1	4	248	0.00	30.232 
19:05	8.8	8.8	8.8	61	-1.9	1	5	248	0.00	30.232 
19:10	8.8	8.8	8.8	61	-1.9	1	4	225	0.00	30.232 
19:15	8.6	8.6	8.6	61	-2.1	1	4	225	0.00	30.240 
19:20	8.4	8.4	8.4	62	-1.9	1	3	248	0.00	30.240 
19:25	8.4	8.4	8.4	62	-1.9	3	6	248	0.00	30.240 
19:30	8.3	8.3	8.3	62	-2.0	2	9	248	0.00	30.250 
19:35	8.3	8.3	8.3	62	-2.0	2	4	248	0.00	30.250 
19:40	8.1	8.1	8.1	62	-2.2	2	5	248	0.00	30.250 
19:45	8.1	8.1	8.1	62	-2.2	2	6	248	0.00	30.253 
19:50	7.9	7.9	7.9	63	-2.0	2	4	248	0.00	30.253 
19:55	7.9	7.9	7.9	63	-2.0	2	4	248	0.00	30.253 
20:00	7.7	7.7	7.7	63	-2.2	2	7	248	0.00	30.258 
20:05	7.7	7.7	7.7	63	-2.2	2	4	248	0.00	30.258 
20:10	7.6	7.6	7.6	64	-2.0	2	4	248	0.00	30.258 
20:15	7.4	7.4	7.4	64	-2.2	2	6	248	0.00	30.251 
20:20	7.2	7.2	7.2	64	-2.4	2	5	248	0.00	30.251 
20:25	7.0	7.0	7.0	65	-2.2	2	6	248	0.00	30.251 
20:30	6.9	6.9	6.9	65	-2.3	2	5	248	0.00	30.251 
20:35	6.9	6.9	6.9	65	-2.3	2	5	248	0.00	30.251 
20:40	6.7	6.7	6.7	65	-2.5	1	3	202	0.00	30.251 
20:45	6.5	6.5	6.5	66	-2.4	2	6	248	0.00	30.249 
20:50	6.5	6.5	6.5	66	-2.4	1	4	248	0.00	30.249 
20:55	6.3	6.3	6.3	66	-2.6	1	4	248	0.00	30.249 
21:00	6.3	6.3	6.3	66	-2.6	1	5	248	0.00	30.251 
21:05	6.1	6.1	6.1	66	-2.8	1	4	248	0.00	30.251 
21:10	6.0	6.0	6.0	67	-2.6	1	4	248	0.00	30.251 
21:15	5.8	5.8	5.8	67	-2.8	1	3	248	0.00	30.250 
21:20	5.8	5.8	5.8	67	-2.8	1	4	248	0.00	30.250 
21:25	5.6	5.6	5.6	67	-2.9	1	3	225	0.00	30.250 
21:30	5.6	5.6	5.6	68	-2.6	1	4	225	0.00	30.250 
21:35	5.4	5.4	5.4	68	-2.8	1	4	248	0.00	30.250 
21:40	5.2	5.2	5.2	68	-3.0	1	3	248	0.00	30.250 
21:45	5.2	5.2	5.2	68	-3.0	1	3	248	0.00	30.253 
21:50	5.0	5.0	5.0	69	-2.9	1	4	248	0.00	30.253 
21:55	4.8	4.8	4.8	69	-3.1	1	3	248	0.00	30.253 
22:00	4.8	4.8	4.8	69	-3.1	2	5	248	0.00	30.256 
22:05	4.7	4.7	4.7	69	-3.2	1	5	248	0.00	30.256 
22:10	4.5	4.5	4.5	69	-3.4	1	3	248	0.00	30.256 
22:15	4.5	4.5	4.5	69	-3.4	1	4	248	0.00	30.254 
22:20	4.3	4.3	4.3	70	-3.3	1	3	248	0.00	30.254 
22:25	4.1	4.1	4.1	70	-3.5	0	2	248	0.00	30.254 
22:30	4.1	4.1	4.1	70	-3.5	0	2	248	0.00	30.256 
22:35	3.9	3.9	3.9	70	-3.7	1	2	248	0.00	30.256 
22:40	3.7	3.7	3.7	70	-3.9	0	2	248	0.00	30.256 
22:45	3.5	3.5	3.5	70	-4.1	1	2	248	0.00	30.252 
22:50	3.4	3.4	3.4	71	-3.9	1	2	248	0.00	30.252 
22:55	3.4	3.4	3.4	71	-3.9	1	2	248	0.00	30.252 
23:00	3.2	3.2	3.2	71	-4.0	1	3	248	0.00	30.251 
23:05	3.2	3.2	3.2	71	-4.0	0	2	248	0.00	30.251 
23:10	2.8	2.8	2.8	71	-4.4	0	2	248	0.00	30.251 
23:15	2.6	2.6	2.6	71	-4.6	0	2	248	0.00	30.246 
23:20	2.4	2.4	2.4	72	-4.5	0	1	248	0.00	30.246 
23:25	2.2	2.2	2.2	72	-4.7	0	2	248	0.00	30.246 
23:30	2.0	2.0	2.0	72	-4.9	0	2	248	0.00	30.247 
23:35	2.0	2.0	2.0	72	-4.9	0	2	248	0.00	30.247 
23:40	1.8	1.8	1.8	72	-5.1	0	1	248	0.00	30.247 
23:45	1.7	1.7	1.7	73	-4.9	0	1	248	0.00	30.246 
23:50	1.5	1.5	1.5	73	-5.1	0	1	248	0.00	30.246 
23:55	1.3	1.3	1.3	73	-5.3	0	1	248	0.00	30.246 

CoCoRaHS
IN-AL-39
A2 Web Hosting
Creative Commons License
GoDaddy
search engine by freefind advanced

loaded 2018-11-18 11:48:10 • last modified 2010-11-18 10:43:29
Privacy PolicyDisclaimer
• wx.awcolley.com is powered by PmWiki v.2002016 •
• all content (unless otherwise noted) © 2018 A W Colley